Katalog artikala KiaSarajevo

Ukupno 91 aktivnih artikala (23.10.2020)
OLX ID SLIKA NAZIV CIJENA DATUM OBJAVE
40229716 ID: 002 PEUGEOT 508 2.0 HDI M/T ID: 002 PEUGEOT 508 2.0 HDI M/T 14.880 KM 22.10.2020
40139396 VOLVO XC90 2.0 D5 AWD A/T MOMENTUM, ID: 025 VOLVO XC90 2.0 D5 AWD A/T MOMENTUM, ID: 025 73.980 KM 21.10.2020
40139397 VOLKSWAGEN PASSAT 2.0 TDI DSG, ID: 018 VOLKSWAGEN PASSAT 2.0 TDI DSG, ID: 018 27.980 KM 21.10.2020
40139398 NISSAN QASHQAI 2 2.0 DIZEL A/T 4X4, ID: 004 NISSAN QASHQAI 2 2.0 DIZEL A/T 4X4, ID: 004 22.980 KM 21.10.2020
40217391 ID: 079 CITROEN C5 1.6 HDI M/T ID: 079 CITROEN C5 1.6 HDI M/T 10.980 KM 21.10.2020
40113742 ŠKODA SUPERB 2.0 TDI DSG 4X4, ID: 052 ŠKODA SUPERB 2.0 TDI DSG 4X4, ID: 052 28.950 KM 21.10.2020
40113961 AUDI A6 2.0 TDI M/T, ID: 043 AUDI A6 2.0 TDI M/T, ID: 043 38.450 KM 21.10.2020
40114099 AUDI A5 2.0 TDI M/T, ID: 062 AUDI A5 2.0 TDI M/T, ID: 062 37.950 KM 21.10.2020
40114078 ID: 078 AUDI A3 1.6 TDI M/T ID: 078 AUDI A3 1.6 TDI M/T 23.800 KM 21.10.2020
40115779 ID: 069 VOLKSWAGEN GOLF 6 2.0 TDI M/T ID: 069 VOLKSWAGEN GOLF 6 2.0 TDI M/T 15.880 KM 21.10.2020
40115910 ID: 141 FORD MONDEO 2.0 TDCI M/T ID: 141 FORD MONDEO 2.0 TDCI M/T 13.800 KM 21.10.2020
40116063 ID: 027 KIA CEED 1.4 BEN M/T *samo 117.651km pređenih* ID: 027 KIA CEED 1.4 BEN M/T *samo 117.651km pređenih* 9.480 KM 21.10.2020
40216757 VOLVO S60 1.6 DIZEL M/T, ID: 162 VOLVO S60 1.6 DIZEL M/T, ID: 162 20.980 KM 21.10.2020
40216692 VOLVO XC40 2.0 D3 A/T ENTRY, ID: 045 VOLVO XC40 2.0 D3 A/T ENTRY, ID: 045 63.980 KM 20.10.2020
40216770 VOLKSWAGEN PASSAT 2.0 TDI M/T, ID: 056 VOLKSWAGEN PASSAT 2.0 TDI M/T, ID: 056 29.980 KM 20.10.2020
40204374 ID: 091 LAND ROVER RANGE ROVER SPORT 3.0 TDI 4X4 A/T ID: 091 LAND ROVER RANGE ROVER SPORT 3.0 TDI 4X4 A/T 31.980 KM 20.10.2020
40204255 ID: 075 BMW X6 3.0 DIZEL X-DRIVE STEPTRONIC ID: 075 BMW X6 3.0 DIZEL X-DRIVE STEPTRONIC 37.900 KM 20.10.2020
39604906 BMW X6 3.0D X-DRIVE *Akcija* BMW X6 3.0D X-DRIVE *Akcija* 38.000 KM 19.10.2020
39604002 ID: 133 MERCEDES BENZ CITAN 1.5 CDI M/T *AKCIJA* ID: 133 MERCEDES BENZ CITAN 1.5 CDI M/T *AKCIJA* 9.900 KM 19.10.2020
39311602 AUDI A3 1.6 TDI M/T AUDI A3 1.6 TDI M/T 21.900 KM 19.10.2020
39311583 VOLKSWAGEN POLO 1.4 TDI M/T VOLKSWAGEN POLO 1.4 TDI M/T 14.900 KM 19.10.2020
39546848 VOLVO S60 1.6 D2 A/T MOMENTUM VOLVO S60 1.6 D2 A/T MOMENTUM 24.490 KM 19.10.2020
39457622 ID: 068 PEUGEOT 508 SW 2.0 HDI M/T *AKCIJA* ID: 068 PEUGEOT 508 SW 2.0 HDI M/T *AKCIJA* 11.980 KM 19.10.2020
39769336 FORD KUGA 2.0 TDCI 4X4 A/T, ID: 094 FORD KUGA 2.0 TDCI 4X4 A/T, ID: 094 26.940 KM 19.10.2020
38757044 ID: 156 MERCEDES BENZ C200 2.2 CDI M/T *AKCIJA* ID: 156 MERCEDES BENZ C200 2.2 CDI M/T *AKCIJA* 13.900 KM 19.10.2020
39579897 ID: 098 VOLKSWAGEN TOUAREG 3.0 TDI DSG 4MOTION ID: 098 VOLKSWAGEN TOUAREG 3.0 TDI DSG 4MOTION 30.800 KM 19.10.2020
39373944 VOLKSWAGEN PASSAT VARIANT 2.0 TDI M/T 4MOTION, ID: 006 VOLKSWAGEN PASSAT VARIANT 2.0 TDI M/T 4MOTION, ID: 006 18.890 KM 19.10.2020
39285889 ID: 028 FORD TRANSIT 2.2 DIZEL M/T *PUTNIČKI 8+1* ID: 028 FORD TRANSIT 2.2 DIZEL M/T *PUTNIČKI 8+1* 12.900 KM 19.10.2020
39116987 ID: 108 AUDI Q7 3.0 TDI QUATTRO S-TRONIC *AKCIJA* ID: 108 AUDI Q7 3.0 TDI QUATTRO S-TRONIC *AKCIJA* 29.900 KM 19.10.2020
38116062 KIA CEED 1.0 T-GDI M/T - 7 GODINA GARANCIJE ! KIA CEED 1.0 T-GDI M/T - 7 GODINA GARANCIJE ! 36.990 KM 28.990 KM 19.10.2020
38099345 KIA CEED 1.0 T-GDI M/T - DEMO VOZILO KIA CEED 1.0 T-GDI M/T - DEMO VOZILO 27.990 KM 19.10.2020
38020265 AUDI A7 3.0 TDI QUATTRO S-TRONIC, ID: 005 AUDI A7 3.0 TDI QUATTRO S-TRONIC, ID: 005 39.980 KM 19.10.2020
39140646 KIA CEED SW 1.0 T-GDI M/T EDITION, ID: 523 KIA CEED SW 1.0 T-GDI M/T EDITION, ID: 523 30.999 KM 19.10.2020
38101330 KIA STONIC 1.2 BENZIN M/T - DEMO VOZILO KIA STONIC 1.2 BENZIN M/T - DEMO VOZILO 28.290 KM 19.10.2020
38020285 MERCEDES BENZ E300 2.2 CDI/ELEKTRIČNI A/T, ID: 017 MERCEDES BENZ E300 2.2 CDI/ELEKTRIČNI A/T, ID: 017 38.980 KM 19.10.2020
39140674 KIA CEED SW 1.0 T-GDI M/T EDITION, ID: 198 KIA CEED SW 1.0 T-GDI M/T EDITION, ID: 198 29.599 KM 19.10.2020
39140785 KIA CEED SW 1.0 T-GDI M/T EDITION, ID: 625 KIA CEED SW 1.0 T-GDI M/T EDITION, ID: 625 30.999 KM 19.10.2020
39140855 KIA CEED 1.4 MPI M/T ACTIVE, ID: 506 KIA CEED 1.4 MPI M/T ACTIVE, ID: 506 24.799 KM 19.10.2020
39140914 KIA CEED 1.4 MPI M/T ACTIVE, ID: 568 KIA CEED 1.4 MPI M/T ACTIVE, ID: 568 23.999 KM 19.10.2020
39140900 KIA CEED 1.4 MPI M/T ACTIVE, ID: 637 KIA CEED 1.4 MPI M/T ACTIVE, ID: 637 24.799 KM 19.10.2020
39140868 KIA CEED 1.4 MPI M/T ACTIVE, ID: 557 KIA CEED 1.4 MPI M/T ACTIVE, ID: 557 24.799 KM 19.10.2020
39885808 ID: 172 VOLKSWAGEN GOLF 6 1.6 TDI M/T ID: 172 VOLKSWAGEN GOLF 6 1.6 TDI M/T 11.900 KM 19.10.2020
39883238 VOLVO V40 2.0 D2 M/T KINETIC, ID: 013 VOLVO V40 2.0 D2 M/T KINETIC, ID: 013 32.980 KM 19.10.2020
39978284 VOLKSWAGEN GOLF 7 1.6 TDI M/T, ID: 001 VOLKSWAGEN GOLF 7 1.6 TDI M/T, ID: 001 23.980 KM 19.10.2020
39874819 VOLKSWAGEN PASSAT 2.0 TDI 4MOTION DSG, ID: 023 VOLKSWAGEN PASSAT 2.0 TDI 4MOTION DSG, ID: 023 30.980 KM 19.10.2020
39868515 VOLKSWAGEN GOLF 7 1.6 TDI M/T, ID: 102 VOLKSWAGEN GOLF 7 1.6 TDI M/T, ID: 102 23.680 KM 19.10.2020
39961431 VOLVO XC40 2.0 D3 AWD A/T MOMENTUM, ID: 022 VOLVO XC40 2.0 D3 AWD A/T MOMENTUM, ID: 022 73.540 KM 19.10.2020
39948838 KIA SPORTAGE 1.7 CRDI M/T KIA SPORTAGE 1.7 CRDI M/T 26.900 KM 19.10.2020
40193606 ID: 029 CITROEN C5 2.0 HDI A/T ID: 029 CITROEN C5 2.0 HDI A/T 12.800 KM 19.10.2020
40193479 ID: 071 ŠKODA FABIA 1.6 TDI M/T ID: 071 ŠKODA FABIA 1.6 TDI M/T 13.470 KM 19.10.2020
40203239 VOLKSWAGEN GOLF 7 2.0 TDI DSG, ID: 084 VOLKSWAGEN GOLF 7 2.0 TDI DSG, ID: 084 21.980 KM 19.10.2020
40095977 AUDI A6 2.0 TDI S-TRONIC, ID: 048 AUDI A6 2.0 TDI S-TRONIC, ID: 048 34.980 KM 16.10.2020
40203238 VOLKSWAGEN GOLF 7 2.0 TDI M/T, ID: 049 VOLKSWAGEN GOLF 7 2.0 TDI M/T, ID: 049 22.980 KM 16.10.2020
40157338 BMW 316 2.0 DIZEL M/T, ID: 041 BMW 316 2.0 DIZEL M/T, ID: 041 27.980 KM 16.10.2020
40157334 VOLVO V60 1.6 DIZEL M/T, ID: 032 VOLVO V60 1.6 DIZEL M/T, ID: 032 16.980 KM 16.10.2020
40054237 AUDI A4 2.0 TDI M/T, ID: 050 AUDI A4 2.0 TDI M/T, ID: 050 29.450 KM 15.10.2020
40051159 ID: 037 RENAULT SCENIC 1.9 DCI M/T *AKCIJA* ID: 037 RENAULT SCENIC 1.9 DCI M/T *AKCIJA* 10.800 KM 15.10.2020
40051288 ID: 035 VOLVO S40 1.8 BENZIN M/T ID: 035 VOLVO S40 1.8 BENZIN M/T 3.900 KM 15.10.2020
40206473 LAND ROVER RANGE ROVER EVOQUE 2.2 DIZEL M/T, ID: 024 LAND ROVER RANGE ROVER EVOQUE 2.2 DIZEL M/T, ID: 024 35.980 KM 15.10.2020
39354951 VOLKSWAGEN TIGUAN 2.0 TDI 4MOTION M/T VOLKSWAGEN TIGUAN 2.0 TDI 4MOTION M/T 25.500 KM 15.10.2020
38085759 ID: 151 MERCEDES BENZ VITO 4x4 2.2 CDI A/T *AKCIJA* ID: 151 MERCEDES BENZ VITO 4x4 2.2 CDI A/T *AKCIJA* 17.900 KM 15.10.2020
39671790 RENAULT SCENIC 1.9 DCI M/T, ID: 030 RENAULT SCENIC 1.9 DCI M/T, ID: 030 11.980 KM 15.10.2020
39457240 ID: 064 CITROEN C5 2.0 HDI A/T *AKCIJA* ID: 064 CITROEN C5 2.0 HDI A/T *AKCIJA* 14.900 KM 15.10.2020
38688062 VOLKSWAGEN TRANSPORTER 2.0 TDI M/T VOLKSWAGEN TRANSPORTER 2.0 TDI M/T 22.980 KM 15.10.2020
38586847 KIA XCEED 1.0 T-GDI M/T - DEMO VOZILO KIA XCEED 1.0 T-GDI M/T - DEMO VOZILO 36.980 KM 15.10.2020
39152966 MERCEDES BENZ C220 2.2 CDI A/T, ID: 055 MERCEDES BENZ C220 2.2 CDI A/T, ID: 055 37.980 KM 15.10.2020
38688048 BMW X1 2.0 DIZEL X-DRIVE M/T BMW X1 2.0 DIZEL X-DRIVE M/T 21.980 KM 15.10.2020
39115477 AUDI A5 2.0 TDI M/T, ID: 154 AUDI A5 2.0 TDI M/T, ID: 154 28.950 KM 15.10.2020
38688058 VOLKSWAGEN TOUAREG 3.0 V6 TDI DSG 4MOTION BLUEMOTION VOLKSWAGEN TOUAREG 3.0 V6 TDI DSG 4MOTION BLUEMOTION 29.950 KM 15.10.2020
21274199 NAJVECI IZBOR RABLJENIH VOZILA U REGIJI!!! NAJVECI IZBOR RABLJENIH VOZILA U REGIJI!!! Po dogovoru 15.10.2020
38568398 ID: 021 HYUNDAI SANTA FE 2.2 CRDI AWD A/T *AKCIJA* ID: 021 HYUNDAI SANTA FE 2.2 CRDI AWD A/T *AKCIJA* 26.900 KM 15.10.2020
37373995 VOLKSWAGEN PASSAT CC 2.0 TDI A/T,ID: 153 VOLKSWAGEN PASSAT CC 2.0 TDI A/T,ID: 153 24.980 KM 15.10.2020
38099825 KIA STONIC 1.25 BENZIN M/T - 7 GODINA GARANCIJE ! KIA STONIC 1.25 BENZIN M/T - 7 GODINA GARANCIJE ! 33.490 KM 28.990 KM 15.10.2020
37446320 ŠKODA SUPERB 2.0 TDI DSG, ID: 031 ŠKODA SUPERB 2.0 TDI DSG, ID: 031 32.980 KM 15.10.2020
35224352 KIA SPORTAGE 1.6 CRDI M/T - 7 GODINA GARANCIJE ! KIA SPORTAGE 1.6 CRDI M/T - 7 GODINA GARANCIJE ! 55.990 KM 45.990 KM 15.10.2020
35656412 KIA SPORTAGE 1.6 CRDI LX EDITION M/T - DEMO VOZILO KIA SPORTAGE 1.6 CRDI LX EDITION M/T - DEMO VOZILO 41.870 KM 15.10.2020
38099455 KIA SPORTAGE 1.6 GDI M/T - DO ISTEKA ZALIHE! KIA SPORTAGE 1.6 GDI M/T - DO ISTEKA ZALIHE! 45.990 KM 35.990 KM 15.10.2020
35409062 KIA RIO 1.25 MPI M/T - DO ISTEKA ZALIHE! KIA RIO 1.25 MPI M/T - DO ISTEKA ZALIHE! 25.490 KM 21.890 KM 15.10.2020
35384977 KIA SPORTAGE 1.6 CRDI M/T - 7 GODINA GARANCIJE! KIA SPORTAGE 1.6 CRDI M/T - 7 GODINA GARANCIJE! 52.990 KM 42.990 KM 15.10.2020
36147955 KIA XCEED 1.0 T-GDI M/T - 7 GODINA GARANCIJE! KIA XCEED 1.0 T-GDI M/T - 7 GODINA GARANCIJE! 42.990 KM 33.990 KM 15.10.2020
17551564 VOLVO DIJELOVI VOLVO DIJELOVI Po dogovoru 15.10.2020
32911402 KIA STONIC 1.25 BENZIN M/T - DO ISTEKA ZALIHE ! KIA STONIC 1.25 BENZIN M/T - DO ISTEKA ZALIHE ! 30.490 KM 25.990 KM 15.10.2020
13069776 Kupovina polovnih vozila na kredit Kupovina polovnih vozila na kredit 10.000 KM 15.10.2020
38586570 PEUGEOT 2008 1.6 HDI A/T PEUGEOT 2008 1.6 HDI A/T 20.970 KM 15.10.2020
39831699 ID:067 OPEL INSIGNIA 2.0 CDTI A/T *garancija na motor* ID:067 OPEL INSIGNIA 2.0 CDTI A/T *garancija na motor* 12.900 KM 15.10.2020
39835746 NISSAN X-TRAIL 1.6 DIZEL 4X4 M/T, ID: 026 NISSAN X-TRAIL 1.6 DIZEL 4X4 M/T, ID: 026 35.950 KM 15.10.2020
39747097 VOLKSWAGEN GOLF 7 1.6 TDI M/T, ID: 114 VOLKSWAGEN GOLF 7 1.6 TDI M/T, ID: 114 21.980 KM 15.10.2020
39933900 MAZDA CX-3 2.0 BENZIN M/T, ID: 012 MAZDA CX-3 2.0 BENZIN M/T, ID: 012 33.980 KM 15.10.2020
39933894 MERCEDES BENZ E200 2.2 CDI M/T, ID: 046 MERCEDES BENZ E200 2.2 CDI M/T, ID: 046 36.980 KM 15.10.2020
40025579 ID: 166 TOYOTA AURIS 1.4 DIZEL M/T *Jedan Vlasnik* ID: 166 TOYOTA AURIS 1.4 DIZEL M/T *Jedan Vlasnik* 10.480 KM 15.10.2020
40054256 BMW X6 3.0 D X-DRIVE STEPTRONIC, ID: 039 BMW X6 3.0 D X-DRIVE STEPTRONIC, ID: 039 41.980 KM 15.10.2020